sensor_id;sensor_type;location;lat;lon;timestamp;P1;durP1;ratioP1;P2;durP2;ratioP2
11927;SDS011;6023;47.070;15.126;2022-08-19T00:01:30;9.07;;;3.60;;
11927;SDS011;6023;47.070;15.126;2022-08-19T00:04:05;7.73;;;3.43;;
11927;SDS011;6023;47.070;15.126;2022-08-19T00:06:36;7.63;;;3.33;;
11927;SDS011;6023;47.070;15.126;2022-08-19T00:09:06;5.20;;;3.03;;
11927;SDS011;6023;47.070;15.126;2022-08-19T00:11:38;8.23;;;3.27;;
11927;SDS011;6023;47.070;15.126;2022-08-19T00:14:07;7.67;;;3.20;;
11927;SDS011;6023;47.070;15.126;2022-08-19T00:16:38;7.33;;;3.27;;
11927;SDS011;6023;47.070;15.126;2022-08-19T00:19:07;7.30;;;3.23;;
11927;SDS011;6023;47.070;15.126;2022-08-19T00:21:36;5.43;;;3.00;;
11927;SDS011;6023;47.070;15.126;2022-08-19T00:24:06;6.47;;;3.33;;
11927;SDS011;6023;47.070;15.126;2022-08-19T00:26:38;7.23;;;3.17;;
11927;SDS011;6023;47.070;15.126;2022-08-19T00:29:08;5.10;;;2.87;;
11927;SDS011;6023;47.070;15.126;2022-08-19T00:31:38;6.33;;;3.20;;
11927;SDS011;6023;47.070;15.126;2022-08-19T00:34:08;6.50;;;2.97;;
11927;SDS011;6023;47.070;15.126;2022-08-19T00:36:37;7.63;;;3.20;;
11927;SDS011;6023;47.070;15.126;2022-08-19T00:39:06;7.50;;;3.33;;
11927;SDS011;6023;47.070;15.126;2022-08-19T00:41:35;9.03;;;3.83;;
11927;SDS011;6023;47.070;15.126;2022-08-19T00:44:06;6.80;;;3.43;;
11927;SDS011;6023;47.070;15.126;2022-08-19T00:46:37;6.87;;;3.20;;
11927;SDS011;6023;47.070;15.126;2022-08-19T00:49:09;8.33;;;3.37;;
11927;SDS011;6023;47.070;15.126;2022-08-19T00:51:41;6.87;;;3.00;;
11927;SDS011;6023;47.070;15.126;2022-08-19T00:54:10;7.90;;;3.50;;
11927;SDS011;6023;47.070;15.126;2022-08-19T00:56:39;7.80;;;3.23;;
11927;SDS011;6023;47.070;15.126;2022-08-19T00:59:10;8.20;;;3.57;;
11927;SDS011;6023;47.070;15.126;2022-08-19T01:01:38;6.93;;;3.50;;
11927;SDS011;6023;47.070;15.126;2022-08-19T01:04:09;10.90;;;4.07;;
11927;SDS011;6023;47.070;15.126;2022-08-19T01:06:38;8.03;;;3.67;;
11927;SDS011;6023;47.070;15.126;2022-08-19T01:09:11;7.47;;;3.63;;
11927;SDS011;6023;47.070;15.126;2022-08-19T01:11:40;10.30;;;4.10;;
11927;SDS011;6023;47.070;15.126;2022-08-19T01:14:12;7.90;;;3.40;;
11927;SDS011;6023;47.070;15.126;2022-08-19T01:16:41;7.40;;;3.40;;
11927;SDS011;6023;47.070;15.126;2022-08-19T01:19:15;6.60;;;3.17;;
11927;SDS011;6023;47.070;15.126;2022-08-19T01:21:48;10.37;;;3.60;;
11927;SDS011;6023;47.070;15.126;2022-08-19T01:24:20;7.93;;;3.40;;
11927;SDS011;6023;47.070;15.126;2022-08-19T01:26:49;11.20;;;3.53;;
11927;SDS011;6023;47.070;15.126;2022-08-19T01:29:19;7.30;;;3.67;;
11927;SDS011;6023;47.070;15.126;2022-08-19T01:31:49;5.03;;;3.00;;
11927;SDS011;6023;47.070;15.126;2022-08-19T01:34:19;6.40;;;3.00;;
11927;SDS011;6023;47.070;15.126;2022-08-19T01:36:47;5.20;;;3.30;;
11927;SDS011;6023;47.070;15.126;2022-08-19T01:39:18;6.07;;;3.37;;
11927;SDS011;6023;47.070;15.126;2022-08-19T01:41:49;6.80;;;2.93;;
11927;SDS011;6023;47.070;15.126;2022-08-19T01:44:21;8.03;;;3.57;;
11927;SDS011;6023;47.070;15.126;2022-08-19T01:46:51;7.80;;;4.00;;
11927;SDS011;6023;47.070;15.126;2022-08-19T01:49:20;10.00;;;3.90;;
11927;SDS011;6023;47.070;15.126;2022-08-19T01:51:52;7.47;;;3.40;;
11927;SDS011;6023;47.070;15.126;2022-08-19T01:54:23;6.47;;;3.30;;
11927;SDS011;6023;47.070;15.126;2022-08-19T01:56:54;8.93;;;4.53;;
11927;SDS011;6023;47.070;15.126;2022-08-19T01:59:25;5.47;;;3.40;;
11927;SDS011;6023;47.070;15.126;2022-08-19T02:01:54;9.27;;;3.63;;
11927;SDS011;6023;47.070;15.126;2022-08-19T02:04:23;7.30;;;3.43;;
11927;SDS011;6023;47.070;15.126;2022-08-19T02:06:52;7.10;;;3.90;;
11927;SDS011;6023;47.070;15.126;2022-08-19T02:09:20;6.50;;;3.77;;
11927;SDS011;6023;47.070;15.126;2022-08-19T02:11:50;9.93;;;3.80;;
11927;SDS011;6023;47.070;15.126;2022-08-19T02:14:20;8.97;;;3.97;;
11927;SDS011;6023;47.070;15.126;2022-08-19T02:16:48;9.10;;;3.73;;
11927;SDS011;6023;47.070;15.126;2022-08-19T02:19:17;8.83;;;3.97;;
11927;SDS011;6023;47.070;15.126;2022-08-19T02:21:45;7.57;;;3.70;;
11927;SDS011;6023;47.070;15.126;2022-08-19T02:24:14;8.17;;;3.80;;
11927;SDS011;6023;47.070;15.126;2022-08-19T02:26:44;10.73;;;3.93;;
11927;SDS011;6023;47.070;15.126;2022-08-19T02:29:13;8.73;;;3.97;;
11927;SDS011;6023;47.070;15.126;2022-08-19T02:31:41;6.43;;;3.40;;
11927;SDS011;6023;47.070;15.126;2022-08-19T02:34:10;7.67;;;3.90;;
11927;SDS011;6023;47.070;15.126;2022-08-19T02:36:39;7.93;;;3.63;;
11927;SDS011;6023;47.070;15.126;2022-08-19T02:39:08;12.30;;;3.90;;
11927;SDS011;6023;47.070;15.126;2022-08-19T02:41:36;6.53;;;3.17;;
11927;SDS011;6023;47.070;15.126;2022-08-19T02:44:06;6.57;;;3.40;;
11927;SDS011;6023;47.070;15.126;2022-08-19T02:46:55;5.80;;;3.30;;
11927;SDS011;6023;47.070;15.126;2022-08-19T02:49:24;9.00;;;3.37;;
11927;SDS011;6023;47.070;15.126;2022-08-19T02:51:52;7.53;;;3.60;;
11927;SDS011;6023;47.070;15.126;2022-08-19T02:54:21;7.33;;;3.50;;
11927;SDS011;6023;47.070;15.126;2022-08-19T02:56:49;6.63;;;3.13;;
11927;SDS011;6023;47.070;15.126;2022-08-19T02:59:19;6.03;;;3.20;;
11927;SDS011;6023;47.070;15.126;2022-08-19T03:01:48;8.80;;;3.43;;
11927;SDS011;6023;47.070;15.126;2022-08-19T03:04:17;7.50;;;3.30;;
11927;SDS011;6023;47.070;15.126;2022-08-19T03:06:47;5.73;;;3.30;;
11927;SDS011;6023;47.070;15.126;2022-08-19T03:09:17;7.80;;;3.40;;
11927;SDS011;6023;47.070;15.126;2022-08-19T03:11:46;7.23;;;3.00;;
11927;SDS011;6023;47.070;15.126;2022-08-19T03:14:20;10.40;;;4.40;;
11927;SDS011;6023;47.070;15.126;2022-08-19T03:16:50;10.60;;;4.37;;
11927;SDS011;6023;47.070;15.126;2022-08-19T03:19:20;10.70;;;5.97;;
11927;SDS011;6023;47.070;15.126;2022-08-19T03:21:49;9.93;;;6.50;;
11927;SDS011;6023;47.070;15.126;2022-08-19T03:24:18;9.27;;;5.20;;
11927;SDS011;6023;47.070;15.126;2022-08-19T03:26:48;9.87;;;7.03;;
11927;SDS011;6023;47.070;15.126;2022-08-19T03:29:19;10.30;;;7.70;;
11927;SDS011;6023;47.070;15.126;2022-08-19T03:31:56;8.73;;;6.27;;
11927;SDS011;6023;47.070;15.126;2022-08-19T03:34:28;11.27;;;6.93;;
11927;SDS011;6023;47.070;15.126;2022-08-19T03:36:58;10.00;;;6.40;;
11927;SDS011;6023;47.070;15.126;2022-08-19T03:39:31;9.87;;;4.70;;
11927;SDS011;6023;47.070;15.126;2022-08-19T03:42:00;9.00;;;4.10;;
11927;SDS011;6023;47.070;15.126;2022-08-19T03:44:50;6.77;;;3.40;;
11927;SDS011;6023;47.070;15.126;2022-08-19T03:47:19;5.30;;;3.00;;
11927;SDS011;6023;47.070;15.126;2022-08-19T03:49:47;7.23;;;2.83;;
11927;SDS011;6023;47.070;15.126;2022-08-19T03:52:16;5.53;;;2.90;;
11927;SDS011;6023;47.070;15.126;2022-08-19T03:54:45;5.40;;;2.73;;
11927;SDS011;6023;47.070;15.126;2022-08-19T03:57:13;7.50;;;2.50;;
11927;SDS011;6023;47.070;15.126;2022-08-19T03:59:42;5.03;;;2.27;;
11927;SDS011;6023;47.070;15.126;2022-08-19T04:02:12;3.93;;;3.00;;
11927;SDS011;6023;47.070;15.126;2022-08-19T04:04:42;4.07;;;2.50;;
11927;SDS011;6023;47.070;15.126;2022-08-19T04:07:12;6.63;;;2.90;;
11927;SDS011;6023;47.070;15.126;2022-08-19T04:09:42;4.30;;;2.90;;
11927;SDS011;6023;47.070;15.126;2022-08-19T04:12:11;3.93;;;2.63;;
11927;SDS011;6023;47.070;15.126;2022-08-19T04:14:40;3.00;;;2.23;;
11927;SDS011;6023;47.070;15.126;2022-08-19T04:17:08;4.53;;;2.40;;
11927;SDS011;6023;47.070;15.126;2022-08-19T04:19:41;4.90;;;3.10;;
11927;SDS011;6023;47.070;15.126;2022-08-19T04:22:10;4.97;;;2.90;;
11927;SDS011;6023;47.070;15.126;2022-08-19T04:24:39;5.47;;;3.80;;
11927;SDS011;6023;47.070;15.126;2022-08-19T04:27:07;9.03;;;6.00;;
11927;SDS011;6023;47.070;15.126;2022-08-19T04:29:36;7.97;;;5.63;;
11927;SDS011;6023;47.070;15.126;2022-08-19T04:32:06;4.60;;;2.90;;
11927;SDS011;6023;47.070;15.126;2022-08-19T04:34:36;5.27;;;2.47;;
11927;SDS011;6023;47.070;15.126;2022-08-19T04:37:27;4.17;;;2.40;;
11927;SDS011;6023;47.070;15.126;2022-08-19T04:40:02;4.03;;;2.70;;
11927;SDS011;6023;47.070;15.126;2022-08-19T04:42:50;3.80;;;2.70;;
11927;SDS011;6023;47.070;15.126;2022-08-19T04:45:20;8.60;;;6.90;;
11927;SDS011;6023;47.070;15.126;2022-08-19T04:47:49;9.47;;;7.87;;
11927;SDS011;6023;47.070;15.126;2022-08-19T04:50:39;10.13;;;8.97;;
11927;SDS011;6023;47.070;15.126;2022-08-19T04:53:10;10.87;;;8.70;;
11927;SDS011;6023;47.070;15.126;2022-08-19T04:55:39;8.13;;;5.30;;
11927;SDS011;6023;47.070;15.126;2022-08-19T04:58:09;3.53;;;2.60;;
11927;SDS011;6023;47.070;15.126;2022-08-19T05:00:38;3.43;;;3.13;;
11927;SDS011;6023;47.070;15.126;2022-08-19T05:03:07;4.67;;;3.60;;
11927;SDS011;6023;47.070;15.126;2022-08-19T05:05:38;6.60;;;5.47;;
11927;SDS011;6023;47.070;15.126;2022-08-19T05:08:13;3.50;;;2.50;;
11927;SDS011;6023;47.070;15.126;2022-08-19T05:10:57;4.03;;;2.40;;
11927;SDS011;6023;47.070;15.126;2022-08-19T05:13:26;2.30;;;1.93;;
11927;SDS011;6023;47.070;15.126;2022-08-19T05:15:55;5.57;;;2.00;;
11927;SDS011;6023;47.070;15.126;2022-08-19T05:18:25;3.57;;;1.90;;
11927;SDS011;6023;47.070;15.126;2022-08-19T05:21:12;4.57;;;2.10;;
11927;SDS011;6023;47.070;15.126;2022-08-19T05:24:00;4.53;;;2.33;;
11927;SDS011;6023;47.070;15.126;2022-08-19T05:26:29;3.77;;;2.20;;
11927;SDS011;6023;47.070;15.126;2022-08-19T05:28:58;4.17;;;2.17;;
11927;SDS011;6023;47.070;15.126;2022-08-19T05:31:26;3.03;;;2.20;;
11927;SDS011;6023;47.070;15.126;2022-08-19T05:33:55;3.03;;;2.40;;
11927;SDS011;6023;47.070;15.126;2022-08-19T05:36:25;4.87;;;2.60;;
11927;SDS011;6023;47.070;15.126;2022-08-19T05:38:53;4.23;;;2.60;;
11927;SDS011;6023;47.070;15.126;2022-08-19T05:41:23;4.33;;;2.40;;
11927;SDS011;6023;47.070;15.126;2022-08-19T05:43:55;2.77;;;2.40;;
11927;SDS011;6023;47.070;15.126;2022-08-19T05:46:24;4.13;;;2.90;;
11927;SDS011;6023;47.070;15.126;2022-08-19T05:48:54;3.27;;;2.47;;
11927;SDS011;6023;47.070;15.126;2022-08-19T05:51:23;3.20;;;2.30;;
11927;SDS011;6023;47.070;15.126;2022-08-19T05:53:54;3.70;;;2.23;;
11927;SDS011;6023;47.070;15.126;2022-08-19T05:56:26;2.67;;;2.10;;
11927;SDS011;6023;47.070;15.126;2022-08-19T05:58:54;2.40;;;2.20;;
11927;SDS011;6023;47.070;15.126;2022-08-19T06:01:25;3.77;;;2.37;;
11927;SDS011;6023;47.070;15.126;2022-08-19T06:03:54;3.97;;;2.20;;
11927;SDS011;6023;47.070;15.126;2022-08-19T06:06:23;4.00;;;2.60;;
11927;SDS011;6023;47.070;15.126;2022-08-19T06:08:51;3.47;;;2.17;;
11927;SDS011;6023;47.070;15.126;2022-08-19T06:11:20;3.00;;;2.17;;
11927;SDS011;6023;47.070;15.126;2022-08-19T06:13:53;4.03;;;2.50;;
11927;SDS011;6023;47.070;15.126;2022-08-19T06:16:26;2.97;;;2.30;;
11927;SDS011;6023;47.070;15.126;2022-08-19T06:18:55;4.27;;;2.53;;
11927;SDS011;6023;47.070;15.126;2022-08-19T06:21:25;5.07;;;2.53;;
11927;SDS011;6023;47.070;15.126;2022-08-19T06:23:56;2.90;;;2.10;;
11927;SDS011;6023;47.070;15.126;2022-08-19T06:26:26;6.77;;;2.57;;
11927;SDS011;6023;47.070;15.126;2022-08-19T06:28:56;4.30;;;2.43;;
11927;SDS011;6023;47.070;15.126;2022-08-19T06:31:25;3.10;;;2.20;;
11927;SDS011;6023;47.070;15.126;2022-08-19T06:34:00;3.23;;;2.20;;
11927;SDS011;6023;47.070;15.126;2022-08-19T06:36:31;8.20;;;7.40;;
11927;SDS011;6023;47.070;15.126;2022-08-19T06:39:02;6.77;;;4.43;;
11927;SDS011;6023;47.070;15.126;2022-08-19T06:41:34;4.17;;;3.53;;
11927;SDS011;6023;47.070;15.126;2022-08-19T06:44:10;3.27;;;2.10;;
11927;SDS011;6023;47.070;15.126;2022-08-19T06:46:39;4.63;;;2.53;;
11927;SDS011;6023;47.070;15.126;2022-08-19T06:49:09;4.40;;;2.33;;
11927;SDS011;6023;47.070;15.126;2022-08-19T06:51:41;3.27;;;1.87;;
11927;SDS011;6023;47.070;15.126;2022-08-19T06:54:10;2.77;;;1.70;;
11927;SDS011;6023;47.070;15.126;2022-08-19T06:56:45;2.33;;;1.53;;
11927;SDS011;6023;47.070;15.126;2022-08-19T06:59:16;3.60;;;1.80;;
11927;SDS011;6023;47.070;15.126;2022-08-19T07:01:46;3.50;;;1.43;;
11927;SDS011;6023;47.070;15.126;2022-08-19T07:04:18;2.73;;;1.77;;
11927;SDS011;6023;47.070;15.126;2022-08-19T07:06:48;1.50;;;1.30;;
11927;SDS011;6023;47.070;15.126;2022-08-19T07:09:21;2.17;;;1.50;;
11927;SDS011;6023;47.070;15.126;2022-08-19T07:11:50;2.73;;;1.50;;
11927;SDS011;6023;47.070;15.126;2022-08-19T07:14:22;1.80;;;1.30;;
11927;SDS011;6023;47.070;15.126;2022-08-19T07:16:54;1.97;;;1.50;;
11927;SDS011;6023;47.070;15.126;2022-08-19T07:19:24;5.53;;;4.77;;
11927;SDS011;6023;47.070;15.126;2022-08-19T07:21:54;16.77;;;14.80;;
11927;SDS011;6023;47.070;15.126;2022-08-19T07:24:23;8.70;;;7.00;;
11927;SDS011;6023;47.070;15.126;2022-08-19T07:27:00;2.97;;;2.40;;
11927;SDS011;6023;47.070;15.126;2022-08-19T07:29:37;3.43;;;2.00;;
11927;SDS011;6023;47.070;15.126;2022-08-19T07:32:06;3.43;;;2.10;;
11927;SDS011;6023;47.070;15.126;2022-08-19T07:34:39;4.07;;;2.03;;
11927;SDS011;6023;47.070;15.126;2022-08-19T07:37:08;2.83;;;1.73;;
11927;SDS011;6023;47.070;15.126;2022-08-19T07:39:37;2.60;;;1.80;;
11927;SDS011;6023;47.070;15.126;2022-08-19T07:42:08;3.07;;;1.70;;
11927;SDS011;6023;47.070;15.126;2022-08-19T07:44:40;2.93;;;2.00;;
11927;SDS011;6023;47.070;15.126;2022-08-19T07:47:16;3.57;;;1.97;;
11927;SDS011;6023;47.070;15.126;2022-08-19T07:50:06;3.07;;;1.80;;
11927;SDS011;6023;47.070;15.126;2022-08-19T07:52:37;2.63;;;1.77;;
11927;SDS011;6023;47.070;15.126;2022-08-19T07:55:07;2.50;;;1.80;;
11927;SDS011;6023;47.070;15.126;2022-08-19T07:57:57;3.07;;;2.00;;
11927;SDS011;6023;47.070;15.126;2022-08-19T08:00:26;2.93;;;1.80;;
11927;SDS011;6023;47.070;15.126;2022-08-19T08:02:55;2.27;;;1.80;;
11927;SDS011;6023;47.070;15.126;2022-08-19T08:05:24;2.90;;;1.97;;
11927;SDS011;6023;47.070;15.126;2022-08-19T08:08:10;2.17;;;1.80;;
11927;SDS011;6023;47.070;15.126;2022-08-19T08:10:56;2.43;;;2.10;;
11927;SDS011;6023;47.070;15.126;2022-08-19T08:13:24;3.73;;;2.60;;
11927;SDS011;6023;47.070;15.126;2022-08-19T08:15:55;2.17;;;1.90;;
11927;SDS011;6023;47.070;15.126;2022-08-19T08:18:25;2.50;;;1.97;;
11927;SDS011;6023;47.070;15.126;2022-08-19T08:20:56;4.30;;;2.03;;
11927;SDS011;6023;47.070;15.126;2022-08-19T08:23:27;3.53;;;1.90;;
11927;SDS011;6023;47.070;15.126;2022-08-19T08:25:57;3.63;;;2.07;;
11927;SDS011;6023;47.070;15.126;2022-08-19T08:28:27;4.13;;;2.10;;
11927;SDS011;6023;47.070;15.126;2022-08-19T08:30:57;3.03;;;1.80;;
11927;SDS011;6023;47.070;15.126;2022-08-19T08:33:28;3.37;;;1.70;;
11927;SDS011;6023;47.070;15.126;2022-08-19T08:36:00;2.00;;;1.80;;
11927;SDS011;6023;47.070;15.126;2022-08-19T08:38:31;2.37;;;1.63;;
11927;SDS011;6023;47.070;15.126;2022-08-19T08:41:08;3.03;;;1.80;;
11927;SDS011;6023;47.070;15.126;2022-08-19T08:43:48;1.67;;;1.57;;
11927;SDS011;6023;47.070;15.126;2022-08-19T08:46:23;14.33;;;12.93;;
11927;SDS011;6023;47.070;15.126;2022-08-19T08:48:59;10.20;;;9.20;;
11927;SDS011;6023;47.070;15.126;2022-08-19T08:51:37;4.13;;;3.10;;
11927;SDS011;6023;47.070;15.126;2022-08-19T08:54:08;2.77;;;1.80;;
11927;SDS011;6023;47.070;15.126;2022-08-19T08:56:39;2.87;;;1.80;;
11927;SDS011;6023;47.070;15.126;2022-08-19T08:59:10;3.57;;;1.83;;
11927;SDS011;6023;47.070;15.126;2022-08-19T09:01:48;3.20;;;1.80;;
11927;SDS011;6023;47.070;15.126;2022-08-19T09:04:17;3.23;;;1.53;;
11927;SDS011;6023;47.070;15.126;2022-08-19T09:06:48;1.83;;;1.60;;
11927;SDS011;6023;47.070;15.126;2022-08-19T09:09:20;1.97;;;1.50;;
11927;SDS011;6023;47.070;15.126;2022-08-19T09:12:00;2.87;;;2.00;;
11927;SDS011;6023;47.070;15.126;2022-08-19T09:14:39;2.70;;;2.10;;
11927;SDS011;6023;47.070;15.126;2022-08-19T09:17:21;2.93;;;1.90;;
11927;SDS011;6023;47.070;15.126;2022-08-19T09:19:59;2.00;;;1.58;;
11927;SDS011;6023;47.070;15.126;2022-08-19T09:22:35;1.70;;;1.60;;
11927;SDS011;6023;47.070;15.126;2022-08-19T09:25:04;4.57;;;2.00;;
11927;SDS011;6023;47.070;15.126;2022-08-19T09:27:35;5.50;;;2.22;;
11927;SDS011;6023;47.070;15.126;2022-08-19T09:30:20;2.20;;;1.77;;
11927;SDS011;6023;47.070;15.126;2022-08-19T09:32:52;3.30;;;1.98;;
11927;SDS011;6023;47.070;15.126;2022-08-19T09:35:23;2.95;;;2.08;;
11927;SDS011;6023;47.070;15.126;2022-08-19T09:37:55;2.22;;;2.03;;
11927;SDS011;6023;47.070;15.126;2022-08-19T09:40:26;2.75;;;1.70;;
11927;SDS011;6023;47.070;15.126;2022-08-19T09:43:00;2.85;;;1.90;;
11927;SDS011;6023;47.070;15.126;2022-08-19T09:45:38;7.45;;;6.25;;
11927;SDS011;6023;47.070;15.126;2022-08-19T09:48:08;5.60;;;2.40;;
11927;SDS011;6023;47.070;15.126;2022-08-19T09:50:44;2.63;;;2.03;;
11927;SDS011;6023;47.070;15.126;2022-08-19T09:53:17;2.90;;;2.10;;
11927;SDS011;6023;47.070;15.126;2022-08-19T09:55:51;4.90;;;4.05;;
11927;SDS011;6023;47.070;15.126;2022-08-19T09:58:20;4.60;;;3.22;;
11927;SDS011;6023;47.070;15.126;2022-08-19T10:00:52;6.82;;;2.40;;
11927;SDS011;6023;47.070;15.126;2022-08-19T10:03:23;4.70;;;2.38;;
11927;SDS011;6023;47.070;15.126;2022-08-19T10:06:00;4.10;;;2.22;;
11927;SDS011;6023;47.070;15.126;2022-08-19T10:08:40;6.30;;;2.40;;
11927;SDS011;6023;47.070;15.126;2022-08-19T10:11:16;7.10;;;2.53;;
11927;SDS011;6023;47.070;15.126;2022-08-19T10:13:54;3.35;;;2.28;;
11927;SDS011;6023;47.070;15.126;2022-08-19T10:16:23;3.65;;;2.20;;
11927;SDS011;6023;47.070;15.126;2022-08-19T10:18:57;3.53;;;2.42;;
11927;SDS011;6023;47.070;15.126;2022-08-19T10:21:32;4.57;;;2.28;;
11927;SDS011;6023;47.070;15.126;2022-08-19T10:24:03;4.63;;;2.50;;
11927;SDS011;6023;47.070;15.126;2022-08-19T10:26:36;5.43;;;3.00;;
11927;SDS011;6023;47.070;15.126;2022-08-19T10:29:10;5.55;;;2.75;;
11927;SDS011;6023;47.070;15.126;2022-08-19T10:32:00;2.80;;;2.30;;
11927;SDS011;6023;47.070;15.126;2022-08-19T10:34:39;3.63;;;2.40;;
11927;SDS011;6023;47.070;15.126;2022-08-19T10:37:15;4.25;;;2.50;;
11927;SDS011;6023;47.070;15.126;2022-08-19T10:39:57;3.60;;;2.70;;
11927;SDS011;6023;47.070;15.126;2022-08-19T10:42:26;3.75;;;2.50;;
11927;SDS011;6023;47.070;15.126;2022-08-19T10:44:55;3.22;;;2.50;;
11927;SDS011;6023;47.070;15.126;2022-08-19T10:47:24;5.93;;;2.70;;
11927;SDS011;6023;47.070;15.126;2022-08-19T10:49:58;4.57;;;2.80;;
11927;SDS011;6023;47.070;15.126;2022-08-19T10:52:45;3.80;;;2.80;;
11927;SDS011;6023;47.070;15.126;2022-08-19T10:55:17;4.53;;;2.70;;
11927;SDS011;6023;47.070;15.126;2022-08-19T10:58:04;5.35;;;3.08;;
11927;SDS011;6023;47.070;15.126;2022-08-19T11:00:39;3.95;;;2.78;;
11927;SDS011;6023;47.070;15.126;2022-08-19T11:03:09;5.07;;;3.05;;
11927;SDS011;6023;47.070;15.126;2022-08-19T11:05:39;4.75;;;2.97;;
11927;SDS011;6023;47.070;15.126;2022-08-19T11:08:08;5.57;;;3.00;;
11927;SDS011;6023;47.070;15.126;2022-08-19T11:10:50;5.85;;;3.10;;
11927;SDS011;6023;47.070;15.126;2022-08-19T11:13:26;6.00;;;3.08;;
11927;SDS011;6023;47.070;15.126;2022-08-19T11:15:59;5.75;;;2.80;;
11927;SDS011;6023;47.070;15.126;2022-08-19T11:18:34;7.03;;;4.50;;
11927;SDS011;6023;47.070;15.126;2022-08-19T11:21:07;6.47;;;3.85;;
11927;SDS011;6023;47.070;15.126;2022-08-19T11:23:37;4.13;;;2.75;;
11927;SDS011;6023;47.070;15.126;2022-08-19T11:26:07;5.45;;;3.15;;
11927;SDS011;6023;47.070;15.126;2022-08-19T11:28:35;5.45;;;3.28;;
11927;SDS011;6023;47.070;15.126;2022-08-19T11:31:09;4.05;;;2.80;;
11927;SDS011;6023;47.070;15.126;2022-08-19T11:33:38;4.25;;;2.80;;
11927;SDS011;6023;47.070;15.126;2022-08-19T11:36:14;4.13;;;2.88;;
11927;SDS011;6023;47.070;15.126;2022-08-19T11:38:44;4.00;;;2.67;;
11927;SDS011;6023;47.070;15.126;2022-08-19T11:41:16;4.53;;;2.90;;
11927;SDS011;6023;47.070;15.126;2022-08-19T11:43:46;5.40;;;3.25;;
11927;SDS011;6023;47.070;15.126;2022-08-19T11:46:15;5.57;;;3.03;;
11927;SDS011;6023;47.070;15.126;2022-08-19T11:48:44;5.93;;;3.75;;
11927;SDS011;6023;47.070;15.126;2022-08-19T11:51:15;6.65;;;3.40;;
11927;SDS011;6023;47.070;15.126;2022-08-19T11:53:45;8.85;;;3.78;;
11927;SDS011;6023;47.070;15.126;2022-08-19T11:56:14;5.03;;;3.10;;
11927;SDS011;6023;47.070;15.126;2022-08-19T11:58:42;5.38;;;2.92;;
11927;SDS011;6023;47.070;15.126;2022-08-19T12:01:12;5.38;;;3.05;;
11927;SDS011;6023;47.070;15.126;2022-08-19T12:03:43;5.75;;;2.70;;
11927;SDS011;6023;47.070;15.126;2022-08-19T12:06:13;7.50;;;3.25;;
11927;SDS011;6023;47.070;15.126;2022-08-19T12:08:44;6.75;;;3.40;;
11927;SDS011;6023;47.070;15.126;2022-08-19T12:11:14;5.05;;;2.88;;
11927;SDS011;6023;47.070;15.126;2022-08-19T12:13:42;5.32;;;2.90;;
11927;SDS011;6023;47.070;15.126;2022-08-19T12:16:13;6.30;;;2.92;;
11927;SDS011;6023;47.070;15.126;2022-08-19T12:18:43;6.80;;;3.15;;
11927;SDS011;6023;47.070;15.126;2022-08-19T12:21:13;6.35;;;2.70;;
11927;SDS011;6023;47.070;15.126;2022-08-19T12:23:43;6.00;;;3.03;;
11927;SDS011;6023;47.070;15.126;2022-08-19T12:26:13;6.80;;;3.10;;
11927;SDS011;6023;47.070;15.126;2022-08-19T12:28:42;6.38;;;3.05;;
11927;SDS011;6023;47.070;15.126;2022-08-19T12:31:10;5.97;;;3.03;;
11927;SDS011;6023;47.070;15.126;2022-08-19T12:33:39;5.57;;;2.92;;
11927;SDS011;6023;47.070;15.126;2022-08-19T12:36:09;7.45;;;3.00;;
11927;SDS011;6023;47.070;15.126;2022-08-19T12:38:40;7.03;;;3.10;;
11927;SDS011;6023;47.070;15.126;2022-08-19T12:41:11;4.80;;;3.13;;
11927;SDS011;6023;47.070;15.126;2022-08-19T12:43:40;4.45;;;2.70;;
11927;SDS011;6023;47.070;15.126;2022-08-19T12:46:09;5.72;;;2.72;;
11927;SDS011;6023;47.070;15.126;2022-08-19T12:48:39;6.78;;;2.88;;
11927;SDS011;6023;47.070;15.126;2022-08-19T12:51:09;6.55;;;3.05;;
11927;SDS011;6023;47.070;15.126;2022-08-19T12:53:41;9.02;;;3.28;;
11927;SDS011;6023;47.070;15.126;2022-08-19T12:56:11;6.55;;;3.00;;
11927;SDS011;6023;47.070;15.126;2022-08-19T12:58:41;5.78;;;3.10;;
11927;SDS011;6023;47.070;15.126;2022-08-19T13:01:18;7.50;;;3.00;;
11927;SDS011;6023;47.070;15.126;2022-08-19T13:03:49;5.30;;;2.65;;
11927;SDS011;6023;47.070;15.126;2022-08-19T13:06:20;5.80;;;2.90;;
11927;SDS011;6023;47.070;15.126;2022-08-19T13:08:50;7.53;;;3.08;;
11927;SDS011;6023;47.070;15.126;2022-08-19T13:11:25;6.50;;;3.15;;
11927;SDS011;6023;47.070;15.126;2022-08-19T13:13:58;7.03;;;2.92;;
11927;SDS011;6023;47.070;15.126;2022-08-19T13:16:28;6.43;;;3.17;;
11927;SDS011;6023;47.070;15.126;2022-08-19T13:18:57;5.05;;;3.00;;
11927;SDS011;6023;47.070;15.126;2022-08-19T13:21:26;4.97;;;3.10;;
11927;SDS011;6023;47.070;15.126;2022-08-19T13:23:58;12.70;;;9.05;;
11927;SDS011;6023;47.070;15.126;2022-08-19T13:26:26;9.15;;;5.32;;
11927;SDS011;6023;47.070;15.126;2022-08-19T13:28:55;12.77;;;8.45;;
11927;SDS011;6023;47.070;15.126;2022-08-19T13:31:41;5.88;;;3.63;;
11927;SDS011;6023;47.070;15.126;2022-08-19T13:34:30;7.13;;;4.47;;
11927;SDS011;6023;47.070;15.126;2022-08-19T13:37:00;6.75;;;3.00;;
11927;SDS011;6023;47.070;15.126;2022-08-19T13:39:32;5.38;;;3.20;;
11927;SDS011;6023;47.070;15.126;2022-08-19T13:42:01;7.28;;;3.10;;
11927;SDS011;6023;47.070;15.126;2022-08-19T13:44:31;5.68;;;3.33;;
11927;SDS011;6023;47.070;15.126;2022-08-19T13:47:00;7.50;;;4.40;;
11927;SDS011;6023;47.070;15.126;2022-08-19T13:49:32;6.10;;;3.58;;
11927;SDS011;6023;47.070;15.126;2022-08-19T13:52:02;7.30;;;3.50;;
11927;SDS011;6023;47.070;15.126;2022-08-19T13:54:33;6.78;;;3.53;;
11927;SDS011;6023;47.070;15.126;2022-08-19T13:57:02;5.53;;;3.08;;
11927;SDS011;6023;47.070;15.126;2022-08-19T13:59:30;5.47;;;2.90;;
11927;SDS011;6023;47.070;15.126;2022-08-19T14:01:59;9.90;;;3.40;;
11927;SDS011;6023;47.070;15.126;2022-08-19T14:04:28;5.25;;;3.53;;
11927;SDS011;6023;47.070;15.126;2022-08-19T14:06:57;5.53;;;3.03;;
11927;SDS011;6023;47.070;15.126;2022-08-19T14:09:25;5.78;;;3.38;;
11927;SDS011;6023;47.070;15.126;2022-08-19T14:11:55;6.35;;;3.60;;
11927;SDS011;6023;47.070;15.126;2022-08-19T14:14:24;5.95;;;3.08;;
11927;SDS011;6023;47.070;15.126;2022-08-19T14:16:52;8.18;;;3.42;;
11927;SDS011;6023;47.070;15.126;2022-08-19T14:19:21;7.43;;;3.55;;
11927;SDS011;6023;47.070;15.126;2022-08-19T14:21:49;8.50;;;3.65;;
11927;SDS011;6023;47.070;15.126;2022-08-19T14:24:18;6.65;;;3.45;;
11927;SDS011;6023;47.070;15.126;2022-08-19T14:26:46;6.65;;;3.58;;
11927;SDS011;6023;47.070;15.126;2022-08-19T14:29:16;5.65;;;3.25;;
11927;SDS011;6023;47.070;15.126;2022-08-19T14:31:45;7.05;;;3.75;;
11927;SDS011;6023;47.070;15.126;2022-08-19T14:34:15;6.05;;;3.55;;
11927;SDS011;6023;47.070;15.126;2022-08-19T14:36:43;6.95;;;3.63;;
11927;SDS011;6023;47.070;15.126;2022-08-19T14:39:15;8.57;;;3.70;;
11927;SDS011;6023;47.070;15.126;2022-08-19T14:41:44;7.88;;;3.80;;
11927;SDS011;6023;47.070;15.126;2022-08-19T14:44:13;6.82;;;3.65;;
11927;SDS011;6023;47.070;15.126;2022-08-19T14:46:43;7.57;;;3.25;;
11927;SDS011;6023;47.070;15.126;2022-08-19T14:49:15;7.63;;;3.80;;
11927;SDS011;6023;47.070;15.126;2022-08-19T14:51:46;4.93;;;3.40;;
11927;SDS011;6023;47.070;15.126;2022-08-19T14:54:14;5.65;;;3.30;;
11927;SDS011;6023;47.070;15.126;2022-08-19T14:56:43;5.55;;;3.22;;
11927;SDS011;6023;47.070;15.126;2022-08-19T14:59:11;6.10;;;3.10;;
11927;SDS011;6023;47.070;15.126;2022-08-19T15:01:40;5.70;;;2.80;;
11927;SDS011;6023;47.070;15.126;2022-08-19T15:04:10;6.93;;;3.40;;
11927;SDS011;6023;47.070;15.126;2022-08-19T15:06:38;7.50;;;3.53;;
11927;SDS011;6023;47.070;15.126;2022-08-19T15:09:09;5.82;;;3.63;;
11927;SDS011;6023;47.070;15.126;2022-08-19T15:11:38;6.80;;;4.00;;
11927;SDS011;6023;47.070;15.126;2022-08-19T15:14:06;6.03;;;3.58;;